• Join FlightAware (Why Join?)
  • Login
  • US Flag 
09:42PM EST


 

Airport Tracker/Info


-or-


 

Live Flight TrackerFlight Track Log ✈ GJS3706 ✈ 03-Jul-2013 ✈ KTUL - KDEN

Flight Track Log - Related Links

Times and Time Zones

All times are in EDT time to prevent confusion due to time zone crossing. See the GJS3706 flight status page for this flight to view local times or setup timezone preferences in your user account.

Time Position Orientation Groundspeed Altitude Reporting Facility
EDT Latitude Longitude Course Direction KTS MPH feet Rate Location/Type
09:32PM 36.1411 -95.8911 189° South 201 231 3,400  Level Kansas City Center
09:32PM 36.0950 -95.9411 221° Southwest 257 296 5,700 2,220 Climbing Kansas City Center
09:34PM 36.1167 -96.0361 286° West 271 312 8,300 2,460 Climbing Kansas City Center
09:35PM 36.1650 -96.1175 306° West 289 333 11,400 2,220 Climbing Kansas City Center
09:36PM 36.2142 -96.2053 305° West 301 346 12,900 1,800 Climbing Kansas City Center
09:37PM 36.2828 -96.3253 305° West 344 396 15,200 2,040 Climbing Kansas City Center
09:38PM 36.3364 -96.4353 301° West 365 420 17,200 1,860 Climbing Kansas City Center
09:39PM 36.3822 -96.5536 296° West 376 433 19,100 1,860 Climbing Kansas City Center
09:40PM 36.4275 -96.6708 296° West 377 434 21,100 1,740 Climbing Kansas City Center
09:41PM 36.4764 -96.7875 298° West 379 436 22,700 1,380 Climbing Kansas City Center
09:42PM 36.5242 -96.9108 296° West 389 448 24,000 1,200 Climbing Kansas City Center
09:43PM 36.5739 -97.0381 296° West 403 464 25,200 1,140 Climbing Kansas City Center
09:44PM 36.6242 -97.1675 296° West 413 475 26,400 1,260 Climbing Kansas City Center
09:45PM 36.6856 -97.3258 296° West 422 486 27,800 780 Climbing Kansas City Center
09:46PM 36.7314 -97.4467 295° West 424 488 28,000 60 Climbing Kansas City Center
09:47PM 36.7844 -97.5867 295° West 437 503 28,000  Level Kansas City Center
09:48PM 36.8378 -97.7239 296° West 440 506 28,000  Level Kansas City Center
09:49PM 36.8886 -97.8628 295° West 439 505 28,000  Level Kansas City Center
09:50PM 36.9400 -97.9997 295° West 435 501 28,000  Level Kansas City Center
09:51PM 37.0022 -98.1661 295° West 437 503 28,000  Level Kansas City Center
09:52PM 37.0544 -98.3053 295° West 440 506 28,000  Level Kansas City Center
09:53PM 37.1069 -98.4481 295° West 445 512 28,000  Level Kansas City Center
09:54PM 37.1583 -98.5894 295° West 445 512 28,000  Level Kansas City Center
09:55PM 37.2114 -98.7325 295° West 448 516 28,000  Level Kansas City Center
09:56PM 37.2633 -98.8767 294° West 450 518 28,000  Level Kansas City Center
09:57PM 37.3156 -99.0186 295° West 448 516 28,000  Level Kansas City Center
09:58PM 37.3672 -99.1622 294° West 449 517 28,000  Level Kansas City Center
09:59PM 37.4178 -99.3053 294° West 448 516 28,000  Level Kansas City Center
10:00PM 37.4781 -99.4689 295° West 450 518 28,000  Level Kansas City Center
10:01PM 37.5283 -99.6056 295° West 449 517 28,000  Level Kansas City Center
10:02PM 37.5839 -99.7669 294° West 452 520 28,000  Level Kansas City Center
10:03PM 37.6347 -99.9039 295° West 451 519 28,000  Level Kansas City Center
10:04PM 37.6908 -100.0650 294° West 450 518 28,000  Level Kansas City Center
10:05PM 37.7383 -100.2022 294° West 448 516 28,000  Level Kansas City Center
10:06PM 37.7861 -100.3389 294° West 446 513 28,000  Level Kansas City Center
10:07PM 37.8425 -100.4989 294° West 449 517 28,000  Level Kansas City Center
10:09PM 37.8897 -100.6350 294° West 447 514 28,000  Level Kansas City Center
10:10PM 37.9450 -100.7933 294° West 446 513 28,000  Level Kansas City Center
10:11PM 37.9961 -100.9244 296° West 440 506 28,000  Level Kansas City Center
10:12PM 38.0556 -101.0797 296° West 441 507 28,000  Level Kansas City Center
10:13PM 38.1064 -101.2128 296° West 441 507 28,000  Level Kansas City Center
10:13PM 38.1475 -101.3217 296° West 436 502 28,000  Level Denver Center
10:14PM 38.2047 -101.4489 300° West 435 501 28,000  Level Denver Center
10:15PM 38.2778 -101.5903 303° West 430 495 28,000  Level Denver Center
10:16PM 38.3372 -101.7131 302° West 428 493 28,000  Level Denver Center
10:18PM 38.4086 -101.8561 303° West 429 494 28,000  Level Denver Center
10:19PM 38.4678 -101.9783 302° West 425 489 28,000  Level Denver Center
10:20PM 38.5369 -102.1208 302° West 422 486 28,000  Level Denver Center
10:21PM 38.5978 -102.2425 303° West 423 487 28,000  Level Denver Center
10:22PM 38.6661 -102.3856 301° West 422 486 28,000  Level Denver Center
10:23PM 38.7256 -102.5092 302° West 426 490 28,000  Level Denver Center
10:24PM 38.7953 -102.6556 301° West 432 497 28,000  Level Denver Center
10:25PM 38.8542 -102.7778 302° West 428 493 28,000  Level Denver Center
10:26PM 38.9167 -102.9086 302° West 432 497 28,000  Level Denver Center
10:27PM 38.9781 -103.0408 301° West 431 496 28,000 -600 Level Denver Center
10:28PM 39.0419 -103.1711 302° West 432 497 26,800 -1,500 Descending Denver Center
10:29PM 39.1150 -103.3275 301° West 427 491 24,900 -1,740 Descending Denver Center
10:30PM 39.1742 -103.4547 301° West 418 481 23,300 -1,620 Descending Denver Center
10:31PM 39.2317 -103.5783 301° West 407 468 21,700 -1,500 Descending Denver Center
10:32PM 39.2811 -103.6875 300° West 360 414 20,300 -1,260 Descending Denver Center
10:33PM 39.3267 -103.7850 301° West 324 373 19,100 -1,080 Descending Denver Center
10:34PM 39.3717 -103.8806 301° West 315 362 18,100 -1,080 Descending Denver Center
10:35PM 39.3986 -104.0050 286° West 327 376 16,900 -1,380 Descending Denver Center
10:36PM 39.4050 -104.1222 274° West 304 350 15,300 -1,500 Descending Denver Center
10:37PM 39.4100 -104.2244 274° West 288 331 13,800 -1,380 Descending Denver Center
10:38PM 39.4169 -104.3203 275° West 270 311 12,500 -1,320 Descending Denver Center
10:39PM 39.4297 -104.4214 279° West 267 307 11,200 -1,020 Descending Denver Center
10:40PM 39.4564 -104.5136 291° West 277 319 10,500 -900 Descending Denver Center
10:41PM 39.5147 -104.5608 328° Northwest 259 298 9,400 -720 Descending Denver Center
10:42PM 39.5853 -104.5889 343° North 250 288 9,100 -360 Descending Denver Center
10:43PM 39.6508 -104.6108 346° North 244 281 8,600 -780 Descending Denver Center
10:44PM 39.7275 -104.6383 345° North 220 253 7,400 -1,080 Descending Denver Center
10:46PM 39.7833 -104.6425 357° North 185 213 6,400 -900 Descending Denver Center
10:47PM 39.8250 -104.6417 North 155 178 5,600 -540 Descending Denver Center
10:48PM 39.8539 -104.6417 360° North 130 150 5,400 -240 Descending Denver Center
10:50PM 39.8500 -104.6667 North  Level FlightAware Approximate
10:57PM 39.8617 -104.6732 North  Level Estimated